Time;durP1;ratioP1;P1;durP2;ratioP2;P2;SDS_P1;SDS_P2;PMS_P1;PMS_P2;Temp;Humidity;BMP_temperature;BMP_pressure;BME280_temperature;BME280_humidity;BME280_pressure;Samples;Min_cycle;Max_cycle;Signal;HPM_P1;HPM_P2
2021/09/19 00:01:54;;;;;;;3.87;3.00;;;14.50;99.90;;;;;;5056313;28;20454;-71
2021/09/19 00:04:20;;;;;;;4.63;2.90;;;14.50;99.90;;;;;;5056084;28;20462;-71
2021/09/19 00:06:47;;;;;;;5.30;3.17;;;14.50;99.90;;;;;;5056899;28;20825;-71
2021/09/19 00:09:14;;;;;;;8.07;3.75;;;14.50;99.90;;;;;;5056888;28;20784;-71
2021/09/19 00:11:44;;;;;;;3.57;2.73;;;14.50;99.90;;;;;;5055943;28;20220;-71
2021/09/19 00:14:13;;;;;;;5.07;3.40;;;14.50;99.90;;;;;;5056413;28;20533;-71
2021/09/19 00:16:40;;;;;;;3.90;3.50;;;14.50;99.90;;;;;;5055388;28;20972;-71
2021/09/19 00:19:07;;;;;;;4.23;3.03;;;14.50;99.90;;;;;;5056847;28;20465;-71
2021/09/19 00:21:34;;;;;;;4.43;2.77;;;14.40;99.90;;;;;;5056015;28;20458;-71
2021/09/19 00:24:00;;;;;;;3.80;3.40;;;14.40;99.90;;;;;;5055434;28;20461;-72
2021/09/19 00:26:27;;;;;;;4.87;3.20;;;14.40;99.90;;;;;;5055877;28;20459;-71
2021/09/19 00:28:55;;;;;;;4.23;2.97;;;14.40;99.90;;;;;;5055811;28;20469;-71
2021/09/19 00:31:25;;;;;;;4.43;2.83;;;14.40;99.90;;;;;;5055260;28;20480;-71
2021/09/19 00:33:51;;;;;;;3.97;2.63;;;14.40;99.90;;;;;;5055836;28;20472;-71
2021/09/19 00:36:18;;;;;;;3.60;3.30;;;14.40;99.90;;;;;;5056193;28;20476;-71
2021/09/19 00:38:45;;;;;;;4.87;3.40;;;14.40;99.90;;;;;;5055597;28;20858;-71
2021/09/19 00:41:12;;;;;;;5.63;3.83;;;14.40;99.90;;;;;;5055499;28;20467;-71
2021/09/19 00:43:39;;;;;;;4.17;3.30;;;14.30;99.90;;;;;;5055292;28;20473;-71
2021/09/19 00:46:07;;;;;;;3.60;3.13;;;14.30;99.90;;;;;;5055396;28;20479;-71
2021/09/19 00:48:34;;;;;;;5.20;3.70;;;14.30;99.90;;;;;;5055375;28;20474;-71
2021/09/19 00:51:04;;;;;;;3.77;3.47;;;14.20;99.90;;;;;;5055040;28;20460;-71
2021/09/19 00:53:33;;;;;;;5.87;3.47;;;14.20;99.90;;;;;;5055299;28;20535;-71
2021/09/19 00:56:04;;;;;;;4.10;3.70;;;14.20;99.90;;;;;;5055055;28;20452;-71
2021/09/19 00:58:32;;;;;;;5.27;3.33;;;14.20;99.90;;;;;;5055584;28;20484;-71
2021/09/19 01:00:59;;;;;;;4.30;3.90;;;14.20;99.90;;;;;;5054879;28;20927;-71
2021/09/19 01:03:28;;;;;;;6.40;3.30;;;14.20;99.90;;;;;;5054809;28;20454;-71
2021/09/19 01:05:55;;;;;;;3.93;3.13;;;14.20;99.90;;;;;;5055649;28;20455;-71
2021/09/19 01:08:22;;;;;;;3.63;3.33;;;14.20;99.90;;;;;;5055079;28;20871;-70
2021/09/19 01:10:49;;;;;;;3.90;3.50;;;14.20;99.90;;;;;;5055161;28;20463;-70
2021/09/19 01:13:16;;;;;;;4.90;4.00;;;14.20;99.90;;;;;;5054835;28;20480;-70
2021/09/19 01:15:43;;;;;;;5.60;3.70;;;14.20;99.90;;;;;;5054780;28;20482;-70
2021/09/19 01:18:11;;;;;;;5.13;3.40;;;14.20;99.90;;;;;;5054767;28;20471;-70
2021/09/19 01:20:39;;;;;;;4.00;3.47;;;14.20;99.90;;;;;;5055052;28;20896;-70
2021/09/19 01:23:09;;;;;;;4.70;3.57;;;14.10;99.90;;;;;;5054722;28;20923;-70
2021/09/19 01:25:39;;;;;;;3.73;3.30;;;14.10;99.90;;;;;;5054645;28;20456;-70
2021/09/19 01:28:06;;;;;;;4.73;3.33;;;14.10;99.90;;;;;;5054838;28;20469;-70
2021/09/19 01:30:35;;;;;;;3.43;3.10;;;14.10;99.90;;;;;;5054888;28;20465;-70
2021/09/19 01:33:04;;;;;;;5.40;3.97;;;14.10;99.90;;;;;;5054547;28;20568;-70
2021/09/19 01:35:31;;;;;;;4.13;3.40;;;14.10;99.90;;;;;;5054648;28;20470;-70
2021/09/19 01:37:59;;;;;;;5.87;3.80;;;14.10;99.90;;;;;;5054841;28;20470;-70
2021/09/19 01:40:26;;;;;;;3.63;3.03;;;14.20;99.90;;;;;;5054809;28;20462;-71
2021/09/19 01:42:55;;;;;;;4.20;3.10;;;14.20;99.90;;;;;;5054765;28;20458;-70
2021/09/19 01:45:21;;;;;;;7.03;3.63;;;14.20;99.90;;;;;;5054679;28;20459;-70
2021/09/19 01:47:49;;;;;;;6.87;3.10;;;14.20;99.90;;;;;;5054549;28;20836;-71
2021/09/19 01:50:16;;;;;;;4.47;3.63;;;14.20;99.90;;;;;;5054203;28;20460;-70
2021/09/19 01:52:42;;;;;;;3.90;3.40;;;14.20;99.90;;;;;;5054134;28;20577;-70
2021/09/19 01:55:10;;;;;;;3.67;3.33;;;14.20;99.90;;;;;;5054466;28;20793;-70
2021/09/19 01:57:36;;;;;;;3.33;3.03;;;14.20;99.90;;;;;;5054598;28;20537;-70
2021/09/19 02:00:06;;;;;;;3.73;3.03;;;14.10;99.90;;;;;;5054344;28;20478;-70
2021/09/19 02:02:34;;;;;;;4.20;3.27;;;14.20;99.90;;;;;;5054798;28;20459;-70
2021/09/19 02:05:01;;;;;;;4.60;3.23;;;14.20;99.90;;;;;;5054451;28;20458;-70
2021/09/19 02:07:28;;;;;;;6.87;3.60;;;14.20;99.90;;;;;;5054645;28;20463;-70
2021/09/19 02:09:57;;;;;;;3.90;3.17;;;14.10;99.90;;;;;;5054552;28;20466;-70
2021/09/19 02:12:23;;;;;;;3.57;3.27;;;14.10;99.90;;;;;;5054276;28;20491;-70
2021/09/19 02:14:50;;;;;;;6.10;3.37;;;14.10;99.90;;;;;;5054047;28;20485;-70
2021/09/19 02:17:18;;;;;;;3.63;3.33;;;14.10;99.90;;;;;;5054339;28;20440;-70
2021/09/19 02:19:45;;;;;;;7.33;3.60;;;14.10;99.90;;;;;;5054494;28;20827;-71
2021/09/19 02:22:13;;;;;;;3.60;3.27;;;14.10;99.90;;;;;;5054792;28;20462;-70
2021/09/19 02:24:40;;;;;;;3.73;3.20;;;14.00;99.90;;;;;;5054488;28;20532;-70
2021/09/19 02:27:07;;;;;;;4.00;3.13;;;14.10;99.90;;;;;;5054121;28;20529;-70
2021/09/19 02:29:34;;;;;;;4.70;3.80;;;14.00;99.90;;;;;;5054101;28;20860;-70
2021/09/19 02:32:00;;;;;;;4.40;3.37;;;14.00;99.90;;;;;;5054281;28;20812;-70
2021/09/19 02:34:28;;;;;;;4.73;3.80;;;14.00;99.90;;;;;;5054277;28;20466;-70
2021/09/19 02:36:55;;;;;;;4.50;3.63;;;14.00;99.90;;;;;;5053909;28;20472;-70
2021/09/19 02:39:23;;;;;;;4.57;3.50;;;14.00;99.90;;;;;;5054253;28;20455;-70
2021/09/19 02:41:50;;;;;;;4.93;3.20;;;14.00;99.90;;;;;;5054254;28;20455;-70
2021/09/19 02:44:19;;;;;;;3.50;3.20;;;14.00;99.90;;;;;;5054007;28;20602;-71
2021/09/19 02:46:47;;;;;;;4.17;3.77;;;14.00;99.90;;;;;;5055311;28;20487;-71
2021/09/19 02:49:14;;;;;;;4.83;3.50;;;13.90;99.90;;;;;;5058168;28;20840;-70
2021/09/19 02:51:42;;;;;;;3.43;3.10;;;13.90;99.90;;;;;;5057702;28;20535;-70
2021/09/19 02:54:09;;;;;;;4.33;3.87;;;13.90;99.90;;;;;;5057995;28;20463;-71
2021/09/19 02:56:40;;;;;;;4.27;3.17;;;13.90;99.90;;;;;;5057847;28;20521;-71
2021/09/19 02:59:07;;;;;;;3.73;3.20;;;13.90;99.90;;;;;;5057463;28;20442;-70
2021/09/19 03:01:34;;;;;;;3.50;3.20;;;13.90;99.90;;;;;;5057773;28;20457;-70
2021/09/19 03:04:00;;;;;;;4.80;3.13;;;13.90;99.90;;;;;;5057557;28;20465;-70
2021/09/19 03:06:27;;;;;;;3.77;2.90;;;13.90;99.90;;;;;;5057569;28;20467;-70
2021/09/19 03:08:55;;;;;;;3.87;3.50;;;13.90;99.90;;;;;;5057227;28;20459;-70
2021/09/19 03:11:22;;;;;;;4.07;3.67;;;13.90;99.90;;;;;;5057578;28;20480;-70
2021/09/19 03:13:48;;;;;;;3.83;3.40;;;13.80;99.90;;;;;;5057032;28;20479;-70
2021/09/19 03:16:15;;;;;;;7.53;3.43;;;13.80;99.90;;;;;;5057303;28;20483;-70
2021/09/19 03:18:42;;;;;;;6.33;3.17;;;13.80;99.90;;;;;;5056953;28;20459;-70
2021/09/19 03:21:08;;;;;;;3.87;3.47;;;13.80;99.90;;;;;;5057137;28;20455;-70
2021/09/19 03:23:35;;;;;;;3.90;3.43;;;13.80;99.90;;;;;;5057129;28;20761;-70
2021/09/19 03:26:03;;;;;;;4.00;3.60;;;13.80;99.90;;;;;;5057178;28;20459;-70
2021/09/19 03:28:30;;;;;;;3.60;3.30;;;13.80;99.90;;;;;;5057413;28;20521;-71
2021/09/19 03:30:57;;;;;;;3.83;3.43;;;13.90;99.90;;;;;;5057375;28;20474;-70
2021/09/19 03:33:23;;;;;;;4.23;3.30;;;13.90;99.90;;;;;;5056925;28;20494;-70
2021/09/19 03:35:50;;;;;;;4.70;3.13;;;13.80;99.90;;;;;;5057357;28;20520;-71
2021/09/19 03:38:17;;;;;;;5.60;3.43;;;13.90;99.90;;;;;;5056560;28;20931;-70
2021/09/19 03:40:44;;;;;;;7.57;4.20;;;13.90;99.90;;;;;;5056720;28;20463;-70
2021/09/19 03:43:12;;;;;;;4.83;3.80;;;13.90;99.90;;;;;;5056766;28;20457;-70
2021/09/19 03:45:39;;;;;;;4.63;4.20;;;13.90;99.90;;;;;;5056705;28;20467;-70
2021/09/19 03:48:08;;;;;;;4.60;4.20;;;13.80;99.90;;;;;;5056456;28;20467;-70
2021/09/19 03:50:35;;;;;;;3.60;3.30;;;13.80;99.90;;;;;;5056476;28;20931;-70
2021/09/19 03:53:02;;;;;;;3.10;2.80;;;13.80;99.90;;;;;;5056704;28;20488;-70
2021/09/19 03:55:29;;;;;;;7.30;3.73;;;13.80;99.90;;;;;;5056304;28;20941;-70
2021/09/19 03:57:56;;;;;;;5.00;3.27;;;13.80;99.90;;;;;;5055737;28;20939;-70
2021/09/19 04:00:24;;;;;;;4.80;3.50;;;13.80;99.90;;;;;;5056704;28;20455;-70
2021/09/19 04:02:51;;;;;;;3.70;3.20;;;13.80;99.90;;;;;;5056487;28;20540;-71
2021/09/19 04:05:18;;;;;;;3.90;3.53;;;13.80;99.90;;;;;;5056485;28;20463;-70
2021/09/19 04:07:46;;;;;;;3.60;3.30;;;13.80;99.90;;;;;;5056777;28;20466;-70
2021/09/19 04:10:13;;;;;;;4.87;3.90;;;13.80;99.90;;;;;;5057620;28;20460;-71
2021/09/19 04:12:43;;;;;;;4.57;3.83;;;13.80;99.90;;;;;;5056701;28;20475;-70
2021/09/19 04:15:12;;;;;;;5.30;3.00;;;13.80;99.90;;;;;;5056771;28;20570;-70
2021/09/19 04:17:41;;;;;;;4.30;3.17;;;13.80;99.90;;;;;;5056741;28;20456;-70
2021/09/19 04:20:09;;;;;;;5.47;4.00;;;13.80;99.90;;;;;;5056363;28;20469;-70
2021/09/19 04:22:36;;;;;;;5.50;3.43;;;13.80;99.90;;;;;;5056215;28;20459;-71
2021/09/19 04:25:03;;;;;;;7.37;4.20;;;13.80;99.90;;;;;;5056839;28;20518;-70
2021/09/19 04:27:30;;;;;;;3.80;3.27;;;13.80;99.90;;;;;;5056499;28;20462;-70
2021/09/19 04:29:56;;;;;;;5.47;3.83;;;13.80;99.90;;;;;;5055452;28;20473;-71
2021/09/19 04:32:26;;;;;;;7.63;3.90;;;13.80;99.90;;;;;;5056045;28;20452;-71
2021/09/19 04:34:54;;;;;;;5.30;3.97;;;13.80;99.90;;;;;;5056032;28;20461;-71
2021/09/19 04:37:21;;;;;;;5.97;3.80;;;13.80;99.90;;;;;;5055781;28;20466;-71
2021/09/19 04:39:51;;;;;;;4.97;3.93;;;13.80;99.90;;;;;;5056082;28;20466;-71
2021/09/19 04:42:17;;;;;;;5.17;4.07;;;13.70;99.90;;;;;;5055629;28;20524;-71
2021/09/19 04:44:44;;;;;;;5.60;4.37;;;13.80;99.90;;;;;;5055496;28;20486;-71
2021/09/19 04:47:11;;;;;;;3.80;3.50;;;13.80;99.90;;;;;;5055537;28;20829;-71
2021/09/19 04:49:39;;;;;;;10.40;3.90;;;13.70;99.90;;;;;;5055627;28;20467;-71
2021/09/19 04:52:07;;;;;;;5.07;3.57;;;13.80;99.90;;;;;;5055606;28;20473;-70
2021/09/19 04:54:34;;;;;;;4.30;3.80;;;13.70;99.90;;;;;;5055509;28;20479;-71
2021/09/19 04:57:01;;;;;;;4.53;4.00;;;13.70;99.90;;;;;;5055780;28;20466;-71
2021/09/19 04:59:28;;;;;;;5.37;4.20;;;13.70;99.90;;;;;;5055097;28;20920;-71
2021/09/19 05:01:55;;;;;;;5.20;3.77;;;13.80;99.90;;;;;;5055369;28;20444;-70
2021/09/19 05:04:22;;;;;;;4.47;3.40;;;13.70;99.90;;;;;;5054736;28;20470;-71
2021/09/19 05:06:48;;;;;;;6.10;4.37;;;13.70;99.90;;;;;;5055321;28;20471;-70
2021/09/19 05:09:16;;;;;;;4.97;3.90;;;13.70;99.90;;;;;;5055364;28;20470;-71
2021/09/19 05:11:43;;;;;;;4.13;3.73;;;13.70;99.90;;;;;;5054927;28;20463;-72
2021/09/19 05:14:10;;;;;;;3.90;3.50;;;13.70;99.90;;;;;;5055214;28;20498;-76
2021/09/19 05:16:37;;;;;;;6.27;3.57;;;13.70;99.90;;;;;;5054988;28;20802;-71
2021/09/19 05:19:03;;;;;;;4.20;3.80;;;13.70;99.90;;;;;;5054918;28;20455;-71
2021/09/19 05:21:30;;;;;;;5.17;3.70;;;13.70;99.90;;;;;;5055042;28;20770;-71
2021/09/19 05:23:57;;;;;;;4.00;3.30;;;13.70;99.90;;;;;;5055159;28;20466;-71
2021/09/19 05:26:25;;;;;;;4.37;3.97;;;13.70;99.90;;;;;;5055112;28;20473;-71
2021/09/19 05:28:57;;;;;;;5.70;4.00;;;13.70;99.90;;;;;;5054868;28;20459;-71
2021/09/19 05:31:24;;;;;;;4.00;3.60;;;13.70;99.90;;;;;;5054788;28;20452;-70
2021/09/19 05:33:50;;;;;;;6.20;4.20;;;13.70;99.90;;;;;;5054963;28;20810;-71
2021/09/19 05:36:17;;;;;;;4.63;3.60;;;13.70;99.90;;;;;;5054830;28;20469;-71
2021/09/19 05:38:44;;;;;;;3.87;3.20;;;13.70;99.90;;;;;;5054832;28;20792;-70
2021/09/19 05:41:11;;;;;;;5.73;3.90;;;13.70;99.90;;;;;;5054961;28;20512;-71
2021/09/19 05:43:39;;;;;;;5.60;4.17;;;13.70;99.90;;;;;;5055578;28;20458;-71
2021/09/19 05:46:05;;;;;;;5.80;4.10;;;13.80;99.90;;;;;;5055187;28;20773;-71
2021/09/19 05:48:32;;;;;;;4.63;3.77;;;13.80;99.90;;;;;;5055350;28;20457;-71
2021/09/19 05:50:59;;;;;;;4.27;3.70;;;13.80;99.90;;;;;;5055129;28;20471;-71
2021/09/19 05:53:26;;;;;;;3.90;3.40;;;13.80;99.90;;;;;;5054841;28;20475;-71
2021/09/19 05:55:55;;;;;;;4.53;3.57;;;13.80;99.90;;;;;;5055514;28;20459;-71
2021/09/19 05:58:22;;;;;;;4.93;3.80;;;13.80;99.90;;;;;;5056830;28;20505;-71
2021/09/19 06:00:50;;;;;;;6.27;3.27;;;13.80;99.90;;;;;;5055784;28;20477;-71
2021/09/19 06:03:16;;;;;;;3.90;3.50;;;13.80;99.90;;;;;;5055088;28;20455;-71
2021/09/19 06:05:43;;;;;;;4.97;3.73;;;13.80;99.90;;;;;;5055735;28;20465;-71
2021/09/19 06:08:10;;;;;;;5.70;3.83;;;13.80;99.90;;;;;;5056173;28;20460;-71
2021/09/19 06:10:36;;;;;;;5.43;4.13;;;13.80;99.90;;;;;;5055762;28;20533;-71
2021/09/19 06:13:03;;;;;;;9.40;4.07;;;13.80;99.90;;;;;;5055134;28;20731;-71
2021/09/19 06:15:30;;;;;;;4.30;3.90;;;13.80;99.90;;;;;;5054304;28;21033;-71
2021/09/19 06:18:01;;;;;;;6.30;4.20;;;13.80;99.90;;;;;;5054269;28;20463;-72
2021/09/19 06:20:28;;;;;;;4.30;3.90;;;13.80;99.90;;;;;;5054361;28;20442;-71
2021/09/19 06:22:54;;;;;;;7.17;3.93;;;13.80;99.90;;;;;;5058608;28;20777;-71
2021/09/19 06:25:21;;;;;;;5.40;3.83;;;13.90;99.90;;;;;;5059119;28;20462;-72
2021/09/19 06:27:48;;;;;;;4.17;3.70;;;13.90;99.90;;;;;;5058431;28;20462;-72
2021/09/19 06:30:15;;;;;;;5.70;4.10;;;13.90;99.90;;;;;;5058895;28;20457;-72
2021/09/19 06:32:42;;;;;;;5.80;4.67;;;13.90;99.90;;;;;;5058313;28;20472;-71
2021/09/19 06:35:11;;;;;;;8.80;4.40;;;14.00;99.90;;;;;;5058135;28;20493;-71
2021/09/19 06:37:38;;;;;;;4.10;3.70;;;14.00;99.90;;;;;;5058008;28;20456;-71
2021/09/19 06:40:08;;;;;;;6.30;4.33;;;14.00;99.90;;;;;;5057947;28;20470;-71
2021/09/19 06:42:34;;;;;;;5.20;3.97;;;14.00;99.90;;;;;;5058344;28;20487;-70
2021/09/19 06:45:05;;;;;;;5.63;3.13;;;14.00;99.90;;;;;;5058087;28;20455;-70
2021/09/19 06:47:32;;;;;;;5.97;4.97;;;14.00;99.90;;;;;;5057643;28;20770;-70
2021/09/19 06:49:58;;;;;;;5.07;3.97;;;14.00;99.90;;;;;;5058098;28;20461;-70
2021/09/19 06:52:26;;;;;;;4.40;3.90;;;14.10;99.90;;;;;;5057799;28;20469;-71
2021/09/19 06:54:56;;;;;;;4.70;3.90;;;14.10;99.90;;;;;;5057661;28;20480;-71
2021/09/19 06:57:23;;;;;;;5.00;3.97;;;14.10;99.90;;;;;;5057936;28;20939;-70
2021/09/19 06:59:50;;;;;;;5.37;4.27;;;14.10;99.90;;;;;;5057578;28;20470;-71
2021/09/19 07:02:16;;;;;;;6.57;3.80;;;14.20;99.90;;;;;;5057704;28;20472;-69
2021/09/19 07:04:43;;;;;;;5.27;4.03;;;14.20;99.90;;;;;;5057268;28;20456;-71
2021/09/19 07:07:11;;;;;;;7.00;4.00;;;14.20;99.90;;;;;;5057653;28;20455;-71
2021/09/19 07:09:39;;;;;;;5.20;4.00;;;14.30;99.90;;;;;;5057374;28;20488;-70
2021/09/19 07:12:06;;;;;;;5.23;4.60;;;14.30;99.90;;;;;;5057170;28;20757;-72
2021/09/19 07:14:33;;;;;;;7.40;4.30;;;14.30;99.90;;;;;;5057194;28;20785;-71
2021/09/19 07:17:00;;;;;;;7.63;4.50;;;14.40;99.90;;;;;;5057372;28;20510;-71
2021/09/19 07:19:26;;;;;;;4.03;3.67;;;14.40;99.90;;;;;;5057266;28;20468;-71
2021/09/19 07:21:53;;;;;;;4.67;3.73;;;14.40;99.90;;;;;;5056876;28;20935;-71
2021/09/19 07:24:20;;;;;;;4.10;3.70;;;14.40;99.90;;;;;;5057105;28;20523;-71
2021/09/19 07:26:48;;;;;;;5.73;3.90;;;14.50;99.90;;;;;;5057063;28;20463;-71
2021/09/19 07:29:17;;;;;;;7.80;5.33;;;14.50;99.90;;;;;;5057189;28;20467;-71
2021/09/19 07:31:50;;;;;;;4.67;3.60;;;14.60;99.90;;;;;;5057183;28;20526;-71
2021/09/19 07:34:17;;;;;;;7.77;3.57;;;14.60;99.90;;;;;;5055801;28;20463;-71
2021/09/19 07:36:50;;;;;;;6.10;3.83;;;14.60;99.90;;;;;;5056967;28;20467;-71
2021/09/19 07:39:17;;;;;;;5.47;3.30;;;14.60;99.90;;;;;;5057404;28;20450;-72
2021/09/19 07:41:44;;;;;;;4.13;3.73;;;14.70;99.90;;;;;;5056789;28;20470;-71
2021/09/19 07:44:16;;;;;;;4.40;3.43;;;14.70;99.90;;;;;;5057002;28;20457;-72
2021/09/19 07:46:44;;;;;;;6.77;3.90;;;14.80;99.90;;;;;;5056501;28;20901;-71
2021/09/19 07:49:12;;;;;;;5.83;3.53;;;14.80;99.90;;;;;;5056973;28;20657;-71
2021/09/19 07:51:39;;;;;;;5.50;4.00;;;14.90;99.90;;;;;;5056740;28;20456;-70
2021/09/19 07:54:06;;;;;;;4.53;4.03;;;15.00;99.90;;;;;;5056638;28;20593;-70
2021/09/19 07:56:32;;;;;;;4.80;3.70;;;15.10;99.90;;;;;;5056406;28;20499;-73
2021/09/19 07:58:59;;;;;;;3.57;3.07;;;15.20;99.90;;;;;;5056739;28;20528;-71
2021/09/19 08:01:27;;;;;;;6.83;4.70;;;15.30;99.90;;;;;;5056208;28;20786;-71
2021/09/19 08:03:54;;;;;;;5.60;3.40;;;15.50;99.90;;;;;;5056678;28;20471;-71
2021/09/19 08:06:22;;;;;;;7.13;3.37;;;15.60;99.90;;;;;;5056476;28;20473;-71
2021/09/19 08:08:49;;;;;;;4.47;3.23;;;15.70;99.90;;;;;;5056096;28;20540;-71
2021/09/19 08:11:16;;;;;;;3.90;3.40;;;15.70;99.90;;;;;;5056524;28;20470;-71
2021/09/19 08:13:42;;;;;;;4.03;3.60;;;15.80;99.90;;;;;;5059970;28;20837;-71
2021/09/19 08:16:09;;;;;;;4.57;3.60;;;15.80;99.90;;;;;;5057090;28;20487;-71
2021/09/19 08:18:37;;;;;;;4.20;3.20;;;15.90;99.90;;;;;;5056345;28;20517;-71
2021/09/19 08:21:04;;;;;;;5.23;3.77;;;16.00;99.90;;;;;;5056392;28;20528;-71
2021/09/19 08:23:31;;;;;;;5.33;3.10;;;16.00;99.90;;;;;;5056832;28;20461;-70
2021/09/19 08:25:58;;;;;;;8.00;4.27;;;16.10;99.90;;;;;;5056066;28;20470;-70
2021/09/19 08:28:25;;;;;;;3.63;3.00;;;16.10;99.90;;;;;;5055920;28;20466;-71
2021/09/19 08:30:52;;;;;;;3.90;3.50;;;16.10;99.90;;;;;;5056088;28;20467;-72
2021/09/19 08:33:21;;;;;;;3.73;2.93;;;16.00;99.90;;;;;;5055413;28;20459;-73
2021/09/19 08:35:49;;;;;;;3.40;3.10;;;16.00;99.90;;;;;;5055609;28;20490;-71
2021/09/19 08:38:16;;;;;;;5.47;3.33;;;16.00;99.90;;;;;;5055168;28;20459;-72
2021/09/19 08:40:42;;;;;;;3.10;2.50;;;16.00;99.90;;;;;;5055378;28;20466;-72
2021/09/19 08:43:09;;;;;;;3.73;3.00;;;16.00;99.90;;;;;;5055213;28;20932;-72
2021/09/19 08:45:38;;;;;;;4.10;3.23;;;16.10;99.90;;;;;;5055227;28;20456;-73
2021/09/19 08:48:06;;;;;;;3.03;2.70;;;16.10;99.90;;;;;;5055665;28;20455;-72
2021/09/19 08:50:33;;;;;;;5.37;3.10;;;16.20;1.00;;;;;;5055141;28;20463;-72
2021/09/19 08:53:01;;;;;;;3.70;3.10;;;16.30;1.00;;;;;;5055685;28;20451;-72
2021/09/19 08:55:28;;;;;;;4.50;3.37;;;16.30;1.00;;;;;;5055662;28;20482;-72
2021/09/19 08:57:54;;;;;;;4.77;3.23;;;16.40;1.00;;;;;;5055713;28;20456;-72
2021/09/19 09:00:21;;;;;;;6.73;3.40;;;16.40;1.00;;;;;;5055884;28;20812;-72
2021/09/19 09:02:50;;;;;;;4.87;3.80;;;16.40;1.00;;;;;;5055155;28;20466;-72
2021/09/19 09:05:26;;;;;;;3.30;2.90;;;16.40;1.00;;;;;;5055193;28;20451;-72
2021/09/19 09:07:54;;;;;;;3.33;3.03;;;16.40;1.00;;;;;;5055043;28;20455;-72
2021/09/19 09:10:37;;;;;;;3.77;3.20;;;16.40;1.00;;;;;;5056216;28;20466;-74
2021/09/19 09:13:06;;;;;;;3.20;2.90;;;16.50;1.00;;;;;;5057224;28;20446;-72
2021/09/19 09:15:34;;;;;;;4.10;3.07;;;16.70;99.90;;;;;;5056217;28;20971;-72
2021/09/19 09:18:04;;;;;;;6.00;3.43;;;16.80;82.40;;;;;;5056267;28;20850;-72
2021/09/19 09:20:47;;;;;;;6.23;3.40;;;16.80;1.00;;;;;;5056038;28;20516;-72
2021/09/19 09:23:25;;;;;;;2.97;2.67;;;16.90;1.00;;;;;;5055748;28;20916;-72
2021/09/19 09:26:17;;;;;;;5.67;3.90;;;17.00;1.00;;;;;;5056501;28;20448;-72
2021/09/19 09:28:49;;;;;;;3.10;2.80;;;17.00;1.00;;;;;;5056154;28;20792;-72
2021/09/19 09:31:25;;;;;;;4.60;3.43;;;17.10;1.00;;;;;;5058902;28;20440;-72
2021/09/19 09:34:00;;;;;;;4.53;3.03;;;17.20;1.00;;;;;;5056206;28;20473;-72
2021/09/19 09:36:32;;;;;;;4.80;3.20;;;17.40;1.00;;;;;;5055327;28;20470;-72
2021/09/19 09:39:01;;;;;;;4.33;3.40;;;17.40;1.00;;;;;;5054482;28;20459;-73
2021/09/19 09:41:42;;;;;;;2.90;2.60;;;17.50;1.00;;;;;;5054486;28;20788;-72
2021/09/19 09:44:29;;;;;;;3.23;2.80;;;17.70;1.00;;;;;;5054712;28;20833;-72
2021/09/19 09:46:56;;;;;;;4.33;3.20;;;17.70;99.90;;;;;;5054220;28;20966;-72
2021/09/19 09:49:34;;;;;;;3.10;2.80;;;17.70;99.90;;;;;;5054716;28;20456;-72
2021/09/19 09:52:05;;;;;;;6.60;2.50;;;17.80;99.90;;;;;;5054559;28;20443;-72
2021/09/19 09:54:40;;;;;;;6.20;2.90;;;17.80;99.90;;;;;;5054246;28;20555;-72
2021/09/19 09:57:09;;;;;;;4.73;3.17;;;17.90;99.90;;;;;;5053202;28;20443;-72
2021/09/19 09:59:39;;;;;;;3.77;3.17;;;18.00;99.90;;;;;;5054301;28;20466;-72
2021/09/19 10:02:06;;;;;;;2.90;2.70;;;18.00;99.90;;;;;;5054020;28;20532;-72
2021/09/19 10:04:35;;;;;;;4.00;2.63;;;18.00;99.90;;;;;;5054439;28;20785;-72
2021/09/19 10:07:02;;;;;;;3.70;2.77;;;18.10;99.90;;;;;;5054106;28;20459;-72
2021/09/19 10:09:29;;;;;;;3.30;3.00;;;18.20;99.90;;;;;;5053825;28;20460;-72
2021/09/19 10:11:56;;;;;;;4.87;2.93;;;18.20;99.90;;;;;;5053596;28;20456;-72
2021/09/19 10:14:25;;;;;;;3.03;2.73;;;18.20;99.90;;;;;;5053789;28;20570;-72
2021/09/19 10:16:55;;;;;;;3.10;2.80;;;18.30;99.90;;;;;;5054154;28;20481;-72
2021/09/19 10:19:22;;;;;;;3.40;2.50;;;18.40;99.90;;;;;;5054312;28;20458;-72
2021/09/19 10:21:51;;;;;;;2.70;2.50;;;18.50;99.90;;;;;;5054161;28;20454;-72
2021/09/19 10:24:18;;;;;;;3.30;2.80;;;18.60;99.90;;;;;;5053644;28;20487;-72
2021/09/19 10:26:52;;;;;;;3.73;2.63;;;18.70;99.90;;;;;;5053434;28;20468;-72
2021/09/19 10:29:27;;;;;;;3.30;2.77;;;18.80;99.90;;;;;;5054146;28;20515;-72
2021/09/19 10:31:56;;;;;;;2.90;2.60;;;18.80;99.90;;;;;;5054153;28;20500;-71
2021/09/19 10:34:27;;;;;;;3.20;2.50;;;18.90;99.90;;;;;;5053684;28;20459;-71
2021/09/19 10:36:56;;;;;;;2.40;2.20;;;19.00;99.90;;;;;;5053970;28;20462;-71
2021/09/19 10:39:26;;;;;;;5.43;2.17;;;19.00;99.90;;;;;;5054525;28;20467;-72
2021/09/19 10:42:13;;;;;;;2.70;2.50;;;19.10;99.10;;;;;;5054643;28;20483;-72
2021/09/19 10:45:16;;;;;;;2.57;2.33;;;19.10;94.20;;;;;;5053834;28;20535;-73
2021/09/19 10:47:46;;;;;;;3.50;2.30;;;19.20;53.70;;;;;;4992852;28;20916;-73
2021/09/19 10:50:34;;;;;;;3.03;2.73;;;19.30;49.20;;;;;;5043063;28;20507;-72
2021/09/19 10:53:02;;;;;;;2.20;2.00;;;19.40;42.40;;;;;;5054235;28;20443;-72
2021/09/19 10:55:33;;;;;;;2.73;2.40;;;19.40;34.80;;;;;;5053795;28;20493;-72
2021/09/19 10:58:11;;;;;;;3.50;2.90;;;19.30;30.70;;;;;;5053641;28;20444;-72
2021/09/19 11:00:40;;;;;;;2.73;2.50;;;19.30;30.80;;;;;;5053876;28;20756;-73
2021/09/19 11:03:13;;;;;;;2.93;2.63;;;19.10;21.20;;;;;;5054100;28;20467;-73
2021/09/19 11:05:48;;;;;;;3.33;2.20;;;18.90;17.60;;;;;;5053559;28;20785;-73
2021/09/19 11:08:41;;;;;;;2.60;2.40;;;18.80;20.20;;;;;;5055733;28;20882;-71
2021/09/19 11:11:11;;;;;;;3.07;2.17;;;18.70;22.10;;;;;;5057195;28;20895;-72
2021/09/19 11:13:41;;;;;;;2.70;2.50;;;18.60;18.60;;;;;;5057253;28;20455;-71
2021/09/19 11:16:40;;;;;;;2.40;2.20;;;18.50;19.80;;;;;;5056746;28;20494;-72
2021/09/19 11:19:10;;;;;;;2.73;2.00;;;18.50;17.40;;;;;;5051583;28;20851;-71
2021/09/19 11:21:48;;;;;;;2.67;2.47;;;18.40;9.40;;;;;;5056822;28;20796;-72
2021/09/19 11:24:24;;;;;;;4.20;2.77;;;18.20;10.50;;;;;;5057281;28;20531;-72
2021/09/19 11:26:54;;;;;;;2.40;2.20;;;18.20;12.70;;;;;;5057201;28;20535;-72
2021/09/19 11:29:24;;;;;;;4.13;2.80;;;18.10;24.60;;;;;;5057210;28;20486;-72
2021/09/19 11:31:55;;;;;;;2.50;2.30;;;18.10;18.10;;;;;;5057074;28;20811;-72
2021/09/19 11:34:23;;;;;;;3.90;2.67;;;18.10;16.20;;;;;;5057332;28;20462;-73
2021/09/19 11:36:52;;;;;;;6.10;2.80;;;18.00;14.10;;;;;;5057198;28;20929;-72
2021/09/19 11:39:20;;;;;;;3.07;2.70;;;17.90;15.80;;;;;;5056534;28;20481;-71
2021/09/19 11:41:48;;;;;;;2.97;2.57;;;17.80;14.90;;;;;;5056894;28;20873;-72
2021/09/19 11:44:17;;;;;;;3.70;2.47;;;17.80;17.10;;;;;;5056491;28;20462;-71
2021/09/19 11:46:46;;;;;;;4.30;3.10;;;17.70;18.80;;;;;;5056571;28;20459;-72
2021/09/19 11:49:14;;;;;;;4.23;2.50;;;17.70;22.60;;;;;;5056751;28;20459;-71
2021/09/19 11:51:44;;;;;;;3.30;2.70;;;17.60;21.10;;;;;;5056169;28;20470;-71
2021/09/19 11:54:13;;;;;;;2.97;2.70;;;17.50;23.10;;;;;;5056688;28;20451;-71
2021/09/19 11:56:43;;;;;;;2.93;2.50;;;17.50;23.70;;;;;;5056496;28;20482;-72
2021/09/19 11:59:14;;;;;;;3.30;2.47;;;17.50;23.20;;;;;;5056492;28;20466;-72
2021/09/19 12:01:41;;;;;;;2.70;2.50;;;17.60;25.00;;;;;;5056608;28;20444;-72
2021/09/19 12:04:10;;;;;;;2.63;2.43;;;17.60;25.20;;;;;;5056992;28;20788;-72
2021/09/19 12:06:41;;;;;;;3.03;2.73;;;17.60;27.00;;;;;;5056796;28;20784;-71
2021/09/19 12:09:18;;;;;;;3.60;2.60;;;17.70;28.20;;;;;;5056696;28;20970;-71
2021/09/19 12:11:47;;;;;;;2.73;2.20;;;17.70;29.50;;;;;;5055893;28;20486;-73
2021/09/19 12:14:19;;;;;;;3.80;2.80;;;17.70;31.90;;;;;;5056252;28;20790;-71
2021/09/19 12:17:00;;;;;;;3.50;2.77;;;17.80;34.20;;;;;;5055562;28;20503;-71
2021/09/19 12:19:28;;;;;;;2.70;2.40;;;18.00;42.60;;;;;;5055988;28;20485;-73
2021/09/19 12:21:59;;;;;;;4.20;2.70;;;18.00;39.90;;;;;;5055589;28;20505;-73
2021/09/19 12:24:28;;;;;;;3.57;2.80;;;18.10;38.40;;;;;;5056638;28;20455;-71
2021/09/19 12:27:16;;;;;;;2.80;2.60;;;18.10;38.80;;;;;;5055569;28;20500;-70
2021/09/19 12:29:47;;;;;;;3.43;2.40;;;18.20;41.40;;;;;;5055739;28;20460;-71
2021/09/19 12:32:14;;;;;;;3.20;2.30;;;18.20;39.60;;;;;;5056193;28;20455;-72
2021/09/19 12:34:46;;;;;;;4.37;2.80;;;18.20;37.40;;;;;;5056133;28;20791;-72
2021/09/19 12:37:15;;;;;;;3.77;2.83;;;18.20;40.00;;;;;;5056089;28;20416;-71
2021/09/19 12:39:43;;;;;;;2.60;2.30;;;18.30;38.30;;;;;;5056090;28;20467;-72
2021/09/19 12:42:09;;;;;;;5.30;2.50;;;18.20;44.20;;;;;;5055713;28;20468;-72
2021/09/19 12:44:37;;;;;;;3.70;2.80;;;18.20;33.80;;;;;;5056075;28;20458;-71
2021/09/19 12:47:08;;;;;;;2.87;2.33;;;18.10;35.00;;;;;;5055790;28;20479;-73
2021/09/19 12:49:43;;;;;;;4.20;2.97;;;18.00;36.30;;;;;;5056488;28;20448;-73
2021/09/19 12:52:12;;;;;;;2.83;2.60;;;17.80;34.00;;;;;;5056495;28;20501;-73
2021/09/19 12:54:49;;;;;;;4.83;2.50;;;17.70;35.20;;;;;;5056837;28;20463;-72
2021/09/19 12:57:17;;;;;;;2.63;2.43;;;17.70;41.00;;;;;;5057443;28;20468;-73